sensor_id;sensor_type;location;lat;lon;timestamp;pressure;altitude;pressure_sealevel;temperature;humidity
78990;BME280;68390;52.130;21.218;2023-04-03T00:01:23;101094.38;;;1.24;64.31
78990;BME280;68390;52.130;21.218;2023-04-03T00:03:49;101106.34;;;1.20;62.92
78990;BME280;68390;52.130;21.218;2023-04-03T00:06:17;101100.16;;;1.18;63.65
78990;BME280;68390;52.130;21.218;2023-04-03T00:08:43;101098.63;;;1.14;65.54
78990;BME280;68390;52.130;21.218;2023-04-03T00:11:09;101098.78;;;1.11;65.25
78990;BME280;68390;52.130;21.218;2023-04-03T00:13:35;101100.63;;;1.10;64.21
78990;BME280;68390;52.130;21.218;2023-04-03T00:16:01;101108.13;;;1.05;64.73
78990;BME280;68390;52.130;21.218;2023-04-03T00:18:28;101105.50;;;1.04;63.20
78990;BME280;68390;52.130;21.218;2023-04-03T00:20:54;101103.88;;;1.01;64.48
78990;BME280;68390;52.130;21.218;2023-04-03T00:23:20;101112.09;;;1.00;63.15
78990;BME280;68390;52.130;21.218;2023-04-03T00:25:46;101116.72;;;0.98;64.72
78990;BME280;68390;52.130;21.218;2023-04-03T00:28:11;101112.34;;;0.95;62.84
78990;BME280;68390;52.130;21.218;2023-04-03T00:30:37;101120.75;;;0.91;64.41
78990;BME280;68390;52.130;21.218;2023-04-03T00:33:02;101117.34;;;0.87;64.29
78990;BME280;68390;52.130;21.218;2023-04-03T00:35:28;101119.47;;;0.82;65.33
78990;BME280;68390;52.130;21.218;2023-04-03T00:37:55;101115.28;;;0.77;63.31
78990;BME280;68390;52.130;21.218;2023-04-03T00:40:23;101124.56;;;0.72;63.49
78990;BME280;68390;52.130;21.218;2023-04-03T00:42:53;101123.06;;;0.67;63.06
78990;BME280;68390;52.130;21.218;2023-04-03T00:45:38;101117.91;;;0.62;64.98
78990;BME280;68390;52.130;21.218;2023-04-03T00:48:07;101121.69;;;0.60;64.77
78990;BME280;68390;52.130;21.218;2023-04-03T00:50:36;101116.63;;;0.54;62.91
78990;BME280;68390;52.130;21.218;2023-04-03T00:53:03;101112.56;;;0.47;63.79
78990;BME280;68390;52.130;21.218;2023-04-03T00:55:30;101122.66;;;0.43;64.69
78990;BME280;68390;52.130;21.218;2023-04-03T00:57:57;101123.88;;;0.38;64.18
78990;BME280;68390;52.130;21.218;2023-04-03T01:00:23;101120.56;;;0.32;63.95
78990;BME280;68390;52.130;21.218;2023-04-03T01:02:50;101127.03;;;0.30;66.87
78990;BME280;68390;52.130;21.218;2023-04-03T01:05:16;101121.97;;;0.24;63.97
78990;BME280;68390;52.130;21.218;2023-04-03T01:07:43;101130.34;;;0.19;64.55
78990;BME280;68390;52.130;21.218;2023-04-03T01:10:11;101127.91;;;0.15;64.41
78990;BME280;68390;52.130;21.218;2023-04-03T01:12:40;101137.91;;;0.13;64.24
78990;BME280;68390;52.130;21.218;2023-04-03T01:15:12;101143.59;;;0.08;63.09
78990;BME280;68390;52.130;21.218;2023-04-03T01:17:44;101148.28;;;0.05;65.34
78990;BME280;68390;52.130;21.218;2023-04-03T01:25:47;101145.44;;;-0.10;66.63
78990;BME280;68390;52.130;21.218;2023-04-03T01:28:19;101158.34;;;-0.15;65.94
78990;BME280;68390;52.130;21.218;2023-04-03T01:30:53;101158.50;;;-0.18;65.27
78990;BME280;68390;52.130;21.218;2023-04-03T01:33:21;101156.84;;;-0.20;65.32
78990;BME280;68390;52.130;21.218;2023-04-03T01:35:47;101161.63;;;-0.25;64.44
78990;BME280;68390;52.130;21.218;2023-04-03T01:38:12;101167.09;;;-0.27;65.33
78990;BME280;68390;52.130;21.218;2023-04-03T01:40:38;101169.94;;;-0.30;65.05
78990;BME280;68390;52.130;21.218;2023-04-03T01:43:03;101170.16;;;-0.33;67.01
78990;BME280;68390;52.130;21.218;2023-04-03T01:45:28;101171.25;;;-0.37;66.02
78990;BME280;68390;52.130;21.218;2023-04-03T01:47:54;101185.84;;;-0.41;66.15
78990;BME280;68390;52.130;21.218;2023-04-03T01:50:19;101182.47;;;-0.45;65.99
78990;BME280;68390;52.130;21.218;2023-04-03T01:52:45;101182.75;;;-0.51;65.16
78990;BME280;68390;52.130;21.218;2023-04-03T01:55:10;101184.78;;;-0.54;64.01
78990;BME280;68390;52.130;21.218;2023-04-03T01:57:36;101183.03;;;-0.55;64.49
78990;BME280;68390;52.130;21.218;2023-04-03T02:00:01;101187.63;;;-0.57;65.74
78990;BME280;68390;52.130;21.218;2023-04-03T02:02:27;101193.16;;;-0.60;66.17
78990;BME280;68390;52.130;21.218;2023-04-03T02:04:52;101199.69;;;-0.64;65.31
78990;BME280;68390;52.130;21.218;2023-04-03T02:07:17;101198.91;;;-0.66;65.18
78990;BME280;68390;52.130;21.218;2023-04-03T02:09:43;101193.81;;;-0.73;65.68
78990;BME280;68390;52.130;21.218;2023-04-03T02:12:08;101197.47;;;-0.73;64.76
78990;BME280;68390;52.130;21.218;2023-04-03T02:14:34;101198.44;;;-0.75;65.22
78990;BME280;68390;52.130;21.218;2023-04-03T02:17:00;101196.81;;;-0.79;66.90
78990;BME280;68390;52.130;21.218;2023-04-03T02:19:26;101200.72;;;-0.84;66.92
78990;BME280;68390;52.130;21.218;2023-04-03T02:21:51;101200.00;;;-0.88;66.40
78990;BME280;68390;52.130;21.218;2023-04-03T02:24:17;101203.78;;;-0.92;66.83
78990;BME280;68390;52.130;21.218;2023-04-03T02:26:42;101195.94;;;-0.96;65.20
78990;BME280;68390;52.130;21.218;2023-04-03T02:29:07;101207.63;;;-0.96;66.84
78990;BME280;68390;52.130;21.218;2023-04-03T02:31:35;101199.75;;;-1.00;65.89
78990;BME280;68390;52.130;21.218;2023-04-03T02:34:00;101209.72;;;-1.02;65.76
78990;BME280;68390;52.130;21.218;2023-04-03T02:36:25;101208.16;;;-1.06;66.35
78990;BME280;68390;52.130;21.218;2023-04-03T02:38:51;101205.59;;;-1.09;67.53
78990;BME280;68390;52.130;21.218;2023-04-03T02:41:16;101215.56;;;-1.12;67.53
78990;BME280;68390;52.130;21.218;2023-04-03T02:43:42;101208.69;;;-1.17;66.65
78990;BME280;68390;52.130;21.218;2023-04-03T02:46:07;101212.31;;;-1.18;68.19
78990;BME280;68390;52.130;21.218;2023-04-03T02:48:33;101211.59;;;-1.22;67.77
78990;BME280;68390;52.130;21.218;2023-04-03T02:50:59;101210.91;;;-1.25;67.88
78990;BME280;68390;52.130;21.218;2023-04-03T02:53:24;101218.19;;;-1.27;66.77
78990;BME280;68390;52.130;21.218;2023-04-03T02:55:50;101213.72;;;-1.28;65.59
78990;BME280;68390;52.130;21.218;2023-04-03T02:58:15;101208.56;;;-1.33;67.37
78990;BME280;68390;52.130;21.218;2023-04-03T03:00:41;101211.31;;;-1.34;66.81
78990;BME280;68390;52.130;21.218;2023-04-03T03:03:06;101213.25;;;-1.36;67.39
78990;BME280;68390;52.130;21.218;2023-04-03T03:05:32;101215.13;;;-1.38;66.66
78990;BME280;68390;52.130;21.218;2023-04-03T03:07:58;101213.44;;;-1.41;67.36
78990;BME280;68390;52.130;21.218;2023-04-03T03:10:23;101221.66;;;-1.44;67.34
78990;BME280;68390;52.130;21.218;2023-04-03T03:12:49;101219.16;;;-1.47;66.44
78990;BME280;68390;52.130;21.218;2023-04-03T03:15:15;101220.09;;;-1.48;68.07
78990;BME280;68390;52.130;21.218;2023-04-03T03:17:42;101224.75;;;-1.52;67.72
78990;BME280;68390;52.130;21.218;2023-04-03T03:20:08;101225.81;;;-1.56;68.89
78990;BME280;68390;52.130;21.218;2023-04-03T03:22:34;101229.63;;;-1.60;67.51
78990;BME280;68390;52.130;21.218;2023-04-03T03:24:59;101228.81;;;-1.62;68.73
78990;BME280;68390;52.130;21.218;2023-04-03T03:27:26;101233.56;;;-1.67;67.57
78990;BME280;68390;52.130;21.218;2023-04-03T03:29:52;101233.63;;;-1.68;68.32
78990;BME280;68390;52.130;21.218;2023-04-03T03:32:17;101239.22;;;-1.73;69.46
78990;BME280;68390;52.130;21.218;2023-04-03T03:34:43;101243.88;;;-1.76;68.98
78990;BME280;68390;52.130;21.218;2023-04-03T03:37:08;101241.34;;;-1.79;69.87
78990;BME280;68390;52.130;21.218;2023-04-03T03:39:33;101244.97;;;-1.80;68.34
78990;BME280;68390;52.130;21.218;2023-04-03T03:41:59;101245.97;;;-1.83;69.81
78990;BME280;68390;52.130;21.218;2023-04-03T03:44:24;101239.00;;;-1.87;69.97
78990;BME280;68390;52.130;21.218;2023-04-03T03:46:50;101239.16;;;-1.90;69.87
78990;BME280;68390;52.130;21.218;2023-04-03T03:49:15;101250.91;;;-1.93;70.45
78990;BME280;68390;52.130;21.218;2023-04-03T03:51:41;101255.44;;;-1.93;70.91
78990;BME280;68390;52.130;21.218;2023-04-03T03:54:06;101250.19;;;-1.96;70.12
78990;BME280;68390;52.130;21.218;2023-04-03T03:56:33;101253.03;;;-1.99;71.82
78990;BME280;68390;52.130;21.218;2023-04-03T03:58:58;101254.09;;;-2.03;70.40
78990;BME280;68390;52.130;21.218;2023-04-03T04:01:24;101256.84;;;-2.05;69.34
78990;BME280;68390;52.130;21.218;2023-04-03T04:03:50;101255.03;;;-2.04;70.90
78990;BME280;68390;52.130;21.218;2023-04-03T04:06:15;101260.34;;;-2.03;70.30
78990;BME280;68390;52.130;21.218;2023-04-03T04:08:41;101261.38;;;-2.05;70.74
78990;BME280;68390;52.130;21.218;2023-04-03T04:11:07;101262.25;;;-2.05;70.82
78990;BME280;68390;52.130;21.218;2023-04-03T04:13:32;101265.00;;;-2.06;70.15
78990;BME280;68390;52.130;21.218;2023-04-03T04:15:58;101275.75;;;-2.06;70.58
78990;BME280;68390;52.130;21.218;2023-04-03T04:18:23;101262.47;;;-2.09;69.87
78990;BME280;68390;52.130;21.218;2023-04-03T04:20:49;101271.31;;;-2.07;70.31
78990;BME280;68390;52.130;21.218;2023-04-03T04:23:16;101269.50;;;-2.07;69.98
78990;BME280;68390;52.130;21.218;2023-04-03T04:25:44;101267.69;;;-2.06;69.76
78990;BME280;68390;52.130;21.218;2023-04-03T04:28:10;101275.75;;;-2.06;70.44
78990;BME280;68390;52.130;21.218;2023-04-03T04:30:35;101274.81;;;-2.05;69.94
78990;BME280;68390;52.130;21.218;2023-04-03T04:33:01;101276.63;;;-2.06;69.71
78990;BME280;68390;52.130;21.218;2023-04-03T04:35:26;101273.00;;;-2.05;69.72
78990;BME280;68390;52.130;21.218;2023-04-03T04:37:52;101281.06;;;-2.05;70.17
78990;BME280;68390;52.130;21.218;2023-04-03T04:40:17;101280.13;;;-2.04;71.49
78990;BME280;68390;52.130;21.218;2023-04-03T04:42:43;101276.50;;;-2.03;70.30
78990;BME280;68390;52.130;21.218;2023-04-03T04:45:08;101281.88;;;-2.03;71.08
78990;BME280;68390;52.130;21.218;2023-04-03T04:47:34;101287.19;;;-2.01;70.77
78990;BME280;68390;52.130;21.218;2023-04-03T04:49:59;101286.25;;;-2.00;69.82
78990;BME280;68390;52.130;21.218;2023-04-03T04:52:24;101284.50;;;-2.01;70.58
78990;BME280;68390;52.130;21.218;2023-04-03T04:54:50;101293.34;;;-1.98;70.80
78990;BME280;68390;52.130;21.218;2023-04-03T04:57:15;101292.47;;;-1.98;70.49
78990;BME280;68390;52.130;21.218;2023-04-03T04:59:41;101304.16;;;-1.99;69.15
78990;BME280;68390;52.130;21.218;2023-04-03T05:02:06;101304.00;;;-1.96;71.69
78990;BME280;68390;52.130;21.218;2023-04-03T05:04:31;101299.50;;;-1.96;70.71
78990;BME280;68390;52.130;21.218;2023-04-03T05:06:58;101305.75;;;-1.95;70.65
78990;BME280;68390;52.130;21.218;2023-04-03T05:09:24;101314.63;;;-1.93;70.40
78990;BME280;68390;52.130;21.218;2023-04-03T05:11:50;101306.50;;;-1.92;69.60
78990;BME280;68390;52.130;21.218;2023-04-03T05:14:15;101318.13;;;-1.91;70.23
78990;BME280;68390;52.130;21.218;2023-04-03T05:16:40;101321.59;;;-1.88;70.29
78990;BME280;68390;52.130;21.218;2023-04-03T05:19:06;101316.19;;;-1.88;70.33
78990;BME280;68390;52.130;21.218;2023-04-03T05:21:31;101320.53;;;-1.85;69.75
78990;BME280;68390;52.130;21.218;2023-04-03T05:23:58;101321.41;;;-1.85;69.47
78990;BME280;68390;52.130;21.218;2023-04-03T05:26:25;101330.25;;;-1.81;68.16
78990;BME280;68390;52.130;21.218;2023-04-03T05:28:51;101327.25;;;-1.75;68.49
78990;BME280;68390;52.130;21.218;2023-04-03T05:31:17;101331.97;;;-1.60;68.02
78990;BME280;68390;52.130;21.218;2023-04-03T05:33:42;101336.09;;;-1.53;68.12
78990;BME280;68390;52.130;21.218;2023-04-03T05:36:08;101328.53;;;-1.44;66.47
78990;BME280;68390;52.130;21.218;2023-04-03T05:38:33;101341.59;;;-1.35;67.78
78990;BME280;68390;52.130;21.218;2023-04-03T05:40:59;101341.00;;;-1.23;67.19
78990;BME280;68390;52.130;21.218;2023-04-03T05:43:25;101343.13;;;-1.11;66.31
78990;BME280;68390;52.130;21.218;2023-04-03T05:45:51;101351.88;;;-1.06;68.03
78990;BME280;68390;52.130;21.218;2023-04-03T05:48:17;101342.91;;;-1.06;65.26
78990;BME280;68390;52.130;21.218;2023-04-03T05:50:42;101350.81;;;-1.03;65.35
78990;BME280;68390;52.130;21.218;2023-04-03T05:53:21;101339.91;;;-1.00;65.31
78990;BME280;68390;52.130;21.218;2023-04-03T05:55:49;101342.16;;;-0.91;66.25
78990;BME280;68390;52.130;21.218;2023-04-03T05:58:14;101344.50;;;-0.84;64.69
78990;BME280;68390;52.130;21.218;2023-04-03T06:00:39;101345.06;;;-0.77;64.00
78990;BME280;68390;52.130;21.218;2023-04-03T06:03:05;101347.38;;;-0.69;66.25
78990;BME280;68390;52.130;21.218;2023-04-03T06:05:31;101334.41;;;-0.44;63.28
78990;BME280;68390;52.130;21.218;2023-04-03T06:07:57;101345.38;;;-0.13;64.33
78990;BME280;68390;52.130;21.218;2023-04-03T06:10:22;101347.28;;;0.20;62.71
78990;BME280;68390;52.130;21.218;2023-04-03T06:12:48;101348.56;;;0.46;61.48
78990;BME280;68390;52.130;21.218;2023-04-03T06:15:13;101352.81;;;0.67;60.83
78990;BME280;68390;52.130;21.218;2023-04-03T06:17:39;101346.22;;;0.88;58.57
78990;BME280;68390;52.130;21.218;2023-04-03T06:20:05;101355.47;;;1.16;58.29
78990;BME280;68390;52.130;21.218;2023-04-03T06:22:31;101358.31;;;1.60;57.79
78990;BME280;68390;52.130;21.218;2023-04-03T06:24:57;101353.63;;;1.93;56.04
78990;BME280;68390;52.130;21.218;2023-04-03T06:27:22;101365.47;;;2.20;55.94
78990;BME280;68390;52.130;21.218;2023-04-03T06:29:48;101368.09;;;2.22;54.63
78990;BME280;68390;52.130;21.218;2023-04-03T06:32:15;101362.97;;;2.17;54.60
78990;BME280;68390;52.130;21.218;2023-04-03T06:34:40;101363.47;;;2.24;53.58
78990;BME280;68390;52.130;21.218;2023-04-03T06:37:10;101366.22;;;2.38;54.37
78990;BME280;68390;52.130;21.218;2023-04-03T06:39:36;101368.81;;;2.40;52.28
78990;BME280;68390;52.130;21.218;2023-04-03T06:42:01;101377.53;;;2.45;53.23
78990;BME280;68390;52.130;21.218;2023-04-03T06:44:27;101371.06;;;2.47;53.43
78990;BME280;68390;52.130;21.218;2023-04-03T06:46:52;101380.63;;;2.39;52.18
78990;BME280;68390;52.130;21.218;2023-04-03T06:49:19;101364.38;;;2.39;53.89
78990;BME280;68390;52.130;21.218;2023-04-03T06:51:44;101385.75;;;2.43;51.64
78990;BME280;68390;52.130;21.218;2023-04-03T06:54:10;101373.19;;;2.85;53.27
78990;BME280;68390;52.130;21.218;2023-04-03T06:56:36;101373.06;;;3.15;52.57
78990;BME280;68390;52.130;21.218;2023-04-03T06:59:02;101378.88;;;3.23;51.47
78990;BME280;68390;52.130;21.218;2023-04-03T07:01:28;101387.72;;;3.53;50.70
78990;BME280;68390;52.130;21.218;2023-04-03T07:03:55;101384.00;;;3.68;49.63
78990;BME280;68390;52.130;21.218;2023-04-03T07:06:21;101388.84;;;3.90;49.08
78990;BME280;68390;52.130;21.218;2023-04-03T07:08:46;101394.84;;;4.35;46.85
78990;BME280;68390;52.130;21.218;2023-04-03T07:11:13;101399.22;;;4.75;45.67
78990;BME280;68390;52.130;21.218;2023-04-03T07:13:38;101396.63;;;4.74;45.12
78990;BME280;68390;52.130;21.218;2023-04-03T07:16:05;101392.56;;;4.92;44.09
78990;BME280;68390;52.130;21.218;2023-04-03T07:18:32;101397.38;;;4.63;44.63
78990;BME280;68390;52.130;21.218;2023-04-03T07:20:57;101399.88;;;4.79;45.73
78990;BME280;68390;52.130;21.218;2023-04-03T07:23:23;101399.50;;;5.09;44.92
78990;BME280;68390;52.130;21.218;2023-04-03T07:25:50;101398.88;;;5.18;46.46
78990;BME280;68390;52.130;21.218;2023-04-03T07:28:18;101398.97;;;5.29;47.41
78990;BME280;68390;52.130;21.218;2023-04-03T07:30:54;101401.03;;;5.13;44.45
78990;BME280;68390;52.130;21.218;2023-04-03T07:33:24;101403.66;;;4.89;45.07
78990;BME280;68390;52.130;21.218;2023-04-03T07:35:49;101410.53;;;4.82;45.75
78990;BME280;68390;52.130;21.218;2023-04-03T07:38:15;101415.78;;;4.85;44.69
78990;BME280;68390;52.130;21.218;2023-04-03T07:40:46;101418.59;;;4.71;46.70
78990;BME280;68390;52.130;21.218;2023-04-03T07:43:11;101410.53;;;4.69;49.25
78990;BME280;68390;52.130;21.218;2023-04-03T07:45:37;101423.91;;;4.60;45.87
78990;BME280;68390;52.130;21.218;2023-04-03T07:48:02;101425.09;;;4.68;45.43
78990;BME280;68390;52.130;21.218;2023-04-03T07:50:28;101404.88;;;4.72;45.57
78990;BME280;68390;52.130;21.218;2023-04-03T07:52:55;101419.25;;;4.74;46.41
78990;BME280;68390;52.130;21.218;2023-04-03T07:55:22;101426.66;;;4.85;42.87
78990;BME280;68390;52.130;21.218;2023-04-03T07:57:48;101422.94;;;4.99;42.10
78990;BME280;68390;52.130;21.218;2023-04-03T08:00:14;101415.97;;;5.07;45.99
78990;BME280;68390;52.130;21.218;2023-04-03T08:02:39;101413.75;;;5.38;47.33
78990;BME280;68390;52.130;21.218;2023-04-03T08:05:05;101415.41;;;5.64;41.46
78990;BME280;68390;52.130;21.218;2023-04-03T08:07:31;101414.78;;;5.84;42.67
78990;BME280;68390;52.130;21.218;2023-04-03T08:09:56;101416.75;;;5.95;42.53
78990;BME280;68390;52.130;21.218;2023-04-03T08:12:22;101419.19;;;6.11;38.83
78990;BME280;68390;52.130;21.218;2023-04-03T08:14:47;101408.59;;;6.30;42.95
78990;BME280;68390;52.130;21.218;2023-04-03T08:17:13;101416.16;;;6.61;43.41
78990;BME280;68390;52.130;21.218;2023-04-03T08:19:39;101420.63;;;6.74;41.94
78990;BME280;68390;52.130;21.218;2023-04-03T08:22:05;101411.91;;;6.57;39.31
78990;BME280;68390;52.130;21.218;2023-04-03T08:24:32;101412.03;;;6.56;40.30
78990;BME280;68390;52.130;21.218;2023-04-03T08:26:57;101426.81;;;6.76;38.84
78990;BME280;68390;52.130;21.218;2023-04-03T08:29:23;101427.84;;;6.86;39.00
78990;BME280;68390;52.130;21.218;2023-04-03T08:31:50;101423.75;;;6.80;35.18
78990;BME280;68390;52.130;21.218;2023-04-03T08:34:16;101418.66;;;6.87;37.48
78990;BME280;68390;52.130;21.218;2023-04-03T08:36:42;101421.91;;;6.92;38.61
78990;BME280;68390;52.130;21.218;2023-04-03T08:39:08;101437.50;;;6.79;39.31
78990;BME280;68390;52.130;21.218;2023-04-03T08:41:38;101430.44;;;6.30;35.46
78990;BME280;68390;52.130;21.218;2023-04-03T08:46:54;101431.38;;;5.45;38.10
78990;BME280;68390;52.130;21.218;2023-04-03T08:49:26;101433.22;;;5.57;38.43
78990;BME280;68390;52.130;21.218;2023-04-03T08:51:54;101423.00;;;5.48;36.82
78990;BME280;68390;52.130;21.218;2023-04-03T08:54:30;101422.81;;;5.62;39.07
78990;BME280;68390;52.130;21.218;2023-04-03T08:57:02;101425.63;;;5.73;39.53
78990;BME280;68390;52.130;21.218;2023-04-03T08:59:32;101429.91;;;5.65;39.43
78990;BME280;68390;52.130;21.218;2023-04-03T09:02:02;101441.00;;;5.38;37.13
78990;BME280;68390;52.130;21.218;2023-04-03T09:04:31;101429.22;;;5.37;38.88
78990;BME280;68390;52.130;21.218;2023-04-03T09:07:03;101433.44;;;5.41;36.83
78990;BME280;68390;52.130;21.218;2023-04-03T09:09:35;101419.75;;;5.30;38.35
78990;BME280;68390;52.130;21.218;2023-04-03T09:12:26;101422.44;;;5.43;40.22
78990;BME280;68390;52.130;21.218;2023-04-03T09:22:46;101429.91;;;5.15;35.55
78990;BME280;68390;52.130;21.218;2023-04-03T09:25:29;101430.56;;;5.06;36.89
78990;BME280;68390;52.130;21.218;2023-04-03T09:27:59;101427.28;;;5.14;39.36
78990;BME280;68390;52.130;21.218;2023-04-03T09:30:26;101419.34;;;5.11;35.19
78990;BME280;68390;52.130;21.218;2023-04-03T09:32:54;101432.53;;;5.17;39.29
78990;BME280;68390;52.130;21.218;2023-04-03T09:35:31;101417.06;;;5.18;38.70
78990;BME280;68390;52.130;21.218;2023-04-03T09:38:00;101433.81;;;5.11;37.09
78990;BME280;68390;52.130;21.218;2023-04-03T09:42:53;101432.41;;;4.93;39.67
78990;BME280;68390;52.130;21.218;2023-04-03T09:45:33;101422.63;;;5.03;40.60
78990;BME280;68390;52.130;21.218;2023-04-03T09:48:16;101449.50;;;5.21;40.69
78990;BME280;68390;52.130;21.218;2023-04-03T09:53:37;101437.09;;;5.16;38.87
78990;BME280;68390;52.130;21.218;2023-04-03T09:58:45;101433.28;;;5.06;41.92
78990;BME280;68390;52.130;21.218;2023-04-03T10:01:41;101447.63;;;5.21;39.39
78990;BME280;68390;52.130;21.218;2023-04-03T10:04:13;101462.06;;;4.98;39.48
78990;BME280;68390;52.130;21.218;2023-04-03T10:06:47;101459.53;;;5.07;40.19
78990;BME280;68390;52.130;21.218;2023-04-03T10:09:30;101453.13;;;5.08;42.48
78990;BME280;68390;52.130;21.218;2023-04-03T10:12:11;101448.81;;;5.30;37.36
78990;BME280;68390;52.130;21.218;2023-04-03T10:14:54;101449.78;;;5.54;37.83
78990;BME280;68390;52.130;21.218;2023-04-03T10:19:58;101455.00;;;5.57;39.15
78990;BME280;68390;52.130;21.218;2023-04-03T10:25:44;101448.59;;;5.45;38.45
78990;BME280;68390;52.130;21.218;2023-04-03T10:28:48;101440.75;;;5.90;37.94
78990;BME280;68390;52.130;21.218;2023-04-03T10:37:21;101448.94;;;6.73;34.62
78990;BME280;68390;52.130;21.218;2023-04-03T10:40:02;101447.81;;;6.86;35.37
78990;BME280;68390;52.130;21.218;2023-04-03T10:42:46;101434.19;;;6.97;34.02
78990;BME280;68390;52.130;21.218;2023-04-03T10:51:31;101434.09;;;7.44;35.01
78990;BME280;68390;52.130;21.218;2023-04-03T10:54:11;101433.69;;;7.59;37.25
78990;BME280;68390;52.130;21.218;2023-04-03T10:57:00;101421.88;;;7.59;33.32
78990;BME280;68390;52.130;21.218;2023-04-03T10:59:41;101424.38;;;8.16;34.17
78990;BME280;68390;52.130;21.218;2023-04-03T11:02:25;101411.19;;;7.78;31.91
78990;BME280;68390;52.130;21.218;2023-04-03T11:04:56;101423.16;;;7.21;33.02
78990;BME280;68390;52.130;21.218;2023-04-03T11:07:28;101434.44;;;6.83;33.34
78990;BME280;68390;52.130;21.218;2023-04-03T11:10:30;101422.66;;;7.27;39.13
78990;BME280;68390;52.130;21.218;2023-04-03T11:15:32;101418.34;;;7.25;31.21
78990;BME280;68390;52.130;21.218;2023-04-03T11:18:02;101422.25;;;6.87;36.24
78990;BME280;68390;52.130;21.218;2023-04-03T11:20:30;101425.28;;;6.49;33.96
78990;BME280;68390;52.130;21.218;2023-04-03T11:23:06;101432.63;;;6.25;35.55
78990;BME280;68390;52.130;21.218;2023-04-03T11:25:36;101434.41;;;6.13;36.18
78990;BME280;68390;52.130;21.218;2023-04-03T11:28:06;101423.75;;;6.45;35.90
78990;BME280;68390;52.130;21.218;2023-04-03T11:30:46;101422.34;;;6.29;39.06
78990;BME280;68390;52.130;21.218;2023-04-03T11:36:07;101425.59;;;5.86;36.30
78990;BME280;68390;52.130;21.218;2023-04-03T11:38:36;101429.78;;;5.66;36.46
78990;BME280;68390;52.130;21.218;2023-04-03T11:41:07;101433.50;;;5.65;35.90
78990;BME280;68390;52.130;21.218;2023-04-03T11:43:36;101430.38;;;6.19;36.91
78990;BME280;68390;52.130;21.218;2023-04-03T11:46:06;101412.09;;;6.32;35.40
78990;BME280;68390;52.130;21.218;2023-04-03T11:53:39;101431.47;;;5.93;36.51
78990;BME280;68390;52.130;21.218;2023-04-03T11:56:27;101426.16;;;5.78;35.44
78990;BME280;68390;52.130;21.218;2023-04-03T12:01:50;101409.81;;;6.26;36.68
78990;BME280;68390;52.130;21.218;2023-04-03T12:04:18;101421.91;;;6.11;34.36
78990;BME280;68390;52.130;21.218;2023-04-03T12:11:49;101412.44;;;6.04;34.29
78990;BME280;68390;52.130;21.218;2023-04-03T12:14:16;101404.63;;;6.34;34.90
78990;BME280;68390;52.130;21.218;2023-04-03T12:16:44;101407.44;;;6.56;34.06
78990;BME280;68390;52.130;21.218;2023-04-03T12:29:34;101414.06;;;6.06;34.98
78990;BME280;68390;52.130;21.218;2023-04-03T12:32:20;101413.41;;;5.92;33.97
78990;BME280;68390;52.130;21.218;2023-04-03T12:45:26;101404.88;;;5.83;35.06
78990;BME280;68390;52.130;21.218;2023-04-03T12:47:54;101400.13;;;5.74;35.22
78990;BME280;68390;52.130;21.218;2023-04-03T12:50:23;101395.81;;;5.83;38.04
78990;BME280;68390;52.130;21.218;2023-04-03T12:52:59;101412.53;;;5.91;36.28
78990;BME280;68390;52.130;21.218;2023-04-03T12:55:26;101405.94;;;5.94;36.96
78990;BME280;68390;52.130;21.218;2023-04-03T12:57:52;101398.81;;;5.80;36.49
78990;BME280;68390;52.130;21.218;2023-04-03T13:00:28;101404.94;;;5.71;36.72
78990;BME280;68390;52.130;21.218;2023-04-03T13:02:54;101406.91;;;5.69;36.30
78990;BME280;68390;52.130;21.218;2023-04-03T13:05:22;101413.16;;;5.82;36.70
78990;BME280;68390;52.130;21.218;2023-04-03T13:07:58;101414.19;;;6.05;36.72
78990;BME280;68390;52.130;21.218;2023-04-03T13:10:25;101386.84;;;6.17;36.53
78990;BME280;68390;52.130;21.218;2023-04-03T13:12:56;101388.06;;;6.13;35.80
78990;BME280;68390;52.130;21.218;2023-04-03T13:15:28;101397.38;;;6.11;35.69
78990;BME280;68390;52.130;21.218;2023-04-03T13:17:54;101391.75;;;6.01;36.78
78990;BME280;68390;52.130;21.218;2023-04-03T13:20:28;101394.22;;;6.04;35.37
78990;BME280;68390;52.130;21.218;2023-04-03T13:23:01;101403.16;;;6.06;34.87
78990;BME280;68390;52.130;21.218;2023-04-03T13:25:31;101390.78;;;6.13;34.56
78990;BME280;68390;52.130;21.218;2023-04-03T13:28:01;101401.63;;;6.26;34.75
78990;BME280;68390;52.130;21.218;2023-04-03T13:30:29;101387.00;;;6.27;35.17
78990;BME280;68390;52.130;21.218;2023-04-03T13:32:56;101380.19;;;6.21;35.57
78990;BME280;68390;52.130;21.218;2023-04-03T13:35:36;101386.34;;;6.12;35.12
78990;BME280;68390;52.130;21.218;2023-04-03T13:38:21;101389.75;;;6.03;36.13
78990;BME280;68390;52.130;21.218;2023-04-03T13:40:53;101384.41;;;5.91;36.77
78990;BME280;68390;52.130;21.218;2023-04-03T13:43:25;101389.69;;;5.92;36.72
78990;BME280;68390;52.130;21.218;2023-04-03T13:48:47;101395.34;;;6.02;32.64
78990;BME280;68390;52.130;21.218;2023-04-03T13:53:49;101387.41;;;5.99;34.65
78990;BME280;68390;52.130;21.218;2023-04-03T14:01:53;101404.09;;;6.18;34.31
78990;BME280;68390;52.130;21.218;2023-04-03T14:04:47;101397.97;;;6.14;35.28
78990;BME280;68390;52.130;21.218;2023-04-03T14:07:15;101402.13;;;6.20;37.82
78990;BME280;68390;52.130;21.218;2023-04-03T14:09:42;101402.13;;;6.20;36.79
78990;BME280;68390;52.130;21.218;2023-04-03T14:12:30;101411.72;;;6.13;33.61
78990;BME280;68390;52.130;21.218;2023-04-03T14:14:57;101397.94;;;6.03;36.31
78990;BME280;68390;52.130;21.218;2023-04-03T14:17:25;101402.78;;;6.00;36.51
78990;BME280;68390;52.130;21.218;2023-04-03T14:19:52;101405.34;;;5.90;35.36
78990;BME280;68390;52.130;21.218;2023-04-03T14:22:24;101399.03;;;5.77;34.72
78990;BME280;68390;52.130;21.218;2023-04-03T14:24:50;101391.19;;;5.72;35.30